createdAt,value
2022-10-05T00:03:39.965Z,8.35
2022-10-05T00:06:10.160Z,8.95
2022-10-05T00:08:37.579Z,9.40
2022-10-05T00:11:08.334Z,9.35
2022-10-05T00:13:35.594Z,9.95
2022-10-05T00:16:12.319Z,8.90
2022-10-05T00:18:43.864Z,9.18
2022-10-05T00:21:25.960Z,9.40
2022-10-05T00:23:58.334Z,9.07
2022-10-05T00:26:28.574Z,8.70
2022-10-05T00:28:56.160Z,9.80
2022-10-05T00:31:32.914Z,9.15
2022-10-05T00:34:00.205Z,9.48
2022-10-05T00:36:27.284Z,9.07
2022-10-05T00:38:55.531Z,9.50
2022-10-05T00:41:45.208Z,8.88
2022-10-05T00:44:32.837Z,9.00
2022-10-05T00:47:31.010Z,9.02
2022-10-05T00:50:18.242Z,9.50
2022-10-05T00:53:23.549Z,8.98
2022-10-05T00:56:11.205Z,10.15
2022-10-05T00:58:51.004Z,9.70
2022-10-05T01:01:46.265Z,9.18
2022-10-05T01:04:45.907Z,9.45
2022-10-05T01:07:30.092Z,10.10
2022-10-05T01:10:34.594Z,9.18
2022-10-05T01:13:18.909Z,9.80
2022-10-05T01:16:24.270Z,8.93
2022-10-05T01:19:07.397Z,10.38
2022-10-05T01:21:53.903Z,10.07
2022-10-05T01:24:42.751Z,9.68
2022-10-05T01:27:31.638Z,10.65
2022-10-05T01:30:13.489Z,10.23
2022-10-05T01:32:43.596Z,10.50
2022-10-05T01:35:40.570Z,10.15
2022-10-05T01:38:24.645Z,9.90
2022-10-05T01:41:01.566Z,10.75
2022-10-05T01:43:44.706Z,10.73
2022-10-05T01:46:33.940Z,10.65
2022-10-05T01:49:13.134Z,10.80
2022-10-05T01:51:58.736Z,11.07
2022-10-05T01:54:55.791Z,11.32
2022-10-05T01:57:45.762Z,10.80
2022-10-05T02:00:18.443Z,10.30
2022-10-05T02:02:57.412Z,10.73
2022-10-05T02:05:39.614Z,11.38
2022-10-05T02:08:27.590Z,10.65
2022-10-05T02:11:15.022Z,11.35
2022-10-05T02:13:47.961Z,10.57
2022-10-05T02:16:43.105Z,10.52
2022-10-05T02:19:44.677Z,10.40
2022-10-05T02:22:28.623Z,10.18
2022-10-05T02:24:59.336Z,10.25
2022-10-05T02:27:33.362Z,10.90
2022-10-05T02:30:05.837Z,11.07
2022-10-05T02:33:02.601Z,10.98
2022-10-05T02:35:30.178Z,10.57
2022-10-05T02:38:07.988Z,11.60
2022-10-05T02:40:47.095Z,10.50
2022-10-05T02:43:18.558Z,11.05
2022-10-05T02:45:58.502Z,11.05
2022-10-05T02:48:37.189Z,11.55
2022-10-05T02:51:28.333Z,10.85
2022-10-05T02:54:08.911Z,10.88
2022-10-05T02:57:08.519Z,11.35
2022-10-05T02:59:46.962Z,10.60
2022-10-05T03:02:35.605Z,10.98
2022-10-05T03:08:03.721Z,11.32
2022-10-05T03:10:43.659Z,11.07
2022-10-05T03:13:23.963Z,11.30
2022-10-05T03:16:25.570Z,11.90
2022-10-05T03:19:02.930Z,11.63
2022-10-05T03:21:54.314Z,12.07
2022-10-05T03:24:31.851Z,11.20
2022-10-05T03:27:11.058Z,11.35
2022-10-05T03:29:52.910Z,10.50
2022-10-05T03:32:45.537Z,11.00
2022-10-05T03:35:57.238Z,11.38
2022-10-05T03:38:58.664Z,11.27
2022-10-05T03:42:09.508Z,11.23
2022-10-05T03:45:03.050Z,11.40
2022-10-05T03:48:01.481Z,11.43
2022-10-05T03:50:52.329Z,11.82
2022-10-05T03:53:26.711Z,11.60
2022-10-05T03:56:33.096Z,11.60
2022-10-05T03:59:15.060Z,11.98
2022-10-05T04:01:52.553Z,10.98
2022-10-05T04:04:47.598Z,11.00
2022-10-05T04:07:47.804Z,11.68
2022-10-05T04:10:23.873Z,11.32
2022-10-05T04:13:11.420Z,11.50
2022-10-05T04:16:08.857Z,10.88
2022-10-05T04:18:47.297Z,10.90
2022-10-05T04:21:24.169Z,11.13
2022-10-05T04:24:00.197Z,10.65
2022-10-05T04:26:56.461Z,11.98
2022-10-05T04:29:44.670Z,11.00
2022-10-05T04:32:16.619Z,9.57
2022-10-05T04:34:51.033Z,10.65
2022-10-05T04:37:42.151Z,10.73
2022-10-05T04:40:48.104Z,10.63
2022-10-05T04:43:25.443Z,10.52
2022-10-05T04:46:22.650Z,9.88
2022-10-05T04:49:02.242Z,10.02
2022-10-05T04:51:52.048Z,10.73
2022-10-05T04:54:30.731Z,11.30
2022-10-05T04:57:07.548Z,10.45
2022-10-05T04:59:50.661Z,10.90
2022-10-05T05:02:25.296Z,11.10
2022-10-05T05:05:22.618Z,11.07
2022-10-05T05:08:32.510Z,11.95
2022-10-05T05:11:12.408Z,10.63
2022-10-05T05:14:01.076Z,11.40
2022-10-05T05:16:43.584Z,10.68
2022-10-05T05:19:24.452Z,11.63
2022-10-05T05:22:04.400Z,11.60
2022-10-05T05:24:41.149Z,11.27
2022-10-05T05:27:09.483Z,11.52
2022-10-05T05:29:38.083Z,11.88
2022-10-05T05:32:33.452Z,10.90
2022-10-05T05:35:32.227Z,10.75
2022-10-05T05:38:28.176Z,10.90
2022-10-05T05:41:18.966Z,11.18
2022-10-05T05:47:02.256Z,10.88
2022-10-05T05:49:36.243Z,10.80
2022-10-05T05:52:53.970Z,10.77
2022-10-05T05:55:36.467Z,9.80
2022-10-05T05:58:06.563Z,10.07
2022-10-05T06:01:04.637Z,10.15
2022-10-05T06:03:38.696Z,10.02
2022-10-05T06:06:12.599Z,10.73
2022-10-05T06:08:47.519Z,10.02
2022-10-05T06:11:46.793Z,10.40
2022-10-05T06:14:32.412Z,10.32
2022-10-05T06:17:33.038Z,10.35
2022-10-05T06:20:05.428Z,9.73
2022-10-05T06:22:43.106Z,10.05
2022-10-05T06:25:13.627Z,10.35
2022-10-05T06:28:12.093Z,10.02
2022-10-05T06:31:30.216Z,9.70
2022-10-05T06:34:29.104Z,9.90
2022-10-05T06:37:04.193Z,9.45
2022-10-05T06:40:01.074Z,9.23
2022-10-05T06:43:17.597Z,9.68
2022-10-05T06:46:15.077Z,9.13
2022-10-05T06:49:27.383Z,9.60
2022-10-05T06:52:34.481Z,9.40
2022-10-05T06:55:24.418Z,8.73
2022-10-05T06:57:55.119Z,8.50
2022-10-05T07:00:45.980Z,9.35
2022-10-05T07:03:40.313Z,9.43
2022-10-05T07:06:17.089Z,8.02
2022-10-05T07:09:17.812Z,7.93
2022-10-05T07:12:27.233Z,8.40
2022-10-05T07:15:27.700Z,7.72
2022-10-05T07:18:17.091Z,8.38
2022-10-05T07:21:23.249Z,8.30
2022-10-05T07:24:20.471Z,7.88
2022-10-05T07:27:03.642Z,7.53
2022-10-05T07:29:50.944Z,7.70
2022-10-05T07:32:34.172Z,7.32
2022-10-05T07:35:44.222Z,7.40
2022-10-05T07:38:25.372Z,7.22
2022-10-05T07:41:08.044Z,7.22
2022-10-05T07:44:02.030Z,6.55
2022-10-05T07:46:38.590Z,6.32
2022-10-05T07:49:34.139Z,6.43
2022-10-05T07:52:13.237Z,5.60
2022-10-05T07:55:04.792Z,6.20
2022-10-05T07:57:32.475Z,5.53
2022-10-05T08:00:10.880Z,5.50
2022-10-05T08:02:55.181Z,5.40
2022-10-05T08:05:30.968Z,5.45
2022-10-05T08:08:20.412Z,5.25
2022-10-05T08:10:52.540Z,4.93
2022-10-05T08:13:48.800Z,5.28
2022-10-05T08:16:16.990Z,5.57
2022-10-05T08:19:08.331Z,5.28
2022-10-05T08:22:00.812Z,5.55
2022-10-05T08:24:49.997Z,5.22
2022-10-05T08:27:32.474Z,5.20
2022-10-05T08:30:05.707Z,5.93
2022-10-05T08:32:42.292Z,5.47
2022-10-05T08:35:43.831Z,5.63
2022-10-05T08:38:24.872Z,5.13
2022-10-05T08:41:29.714Z,4.90
2022-10-05T08:44:09.367Z,5.18
2022-10-05T08:46:53.701Z,5.68
2022-10-05T08:49:23.923Z,5.40
2022-10-05T08:52:21.414Z,5.47
2022-10-05T08:55:07.523Z,5.10
2022-10-05T08:58:08.834Z,5.30
2022-10-05T09:01:02.354Z,4.93
2022-10-05T09:03:34.820Z,4.85
2022-10-05T09:06:30.305Z,4.90
2022-10-05T09:09:25.384Z,5.25
2022-10-05T09:12:23.116Z,4.78
2022-10-05T09:15:24.765Z,4.90
2022-10-05T09:18:23.845Z,4.43
2022-10-05T09:21:10.593Z,5.10
2022-10-05T09:23:45.461Z,4.25
2022-10-05T09:26:40.662Z,4.72
2022-10-05T09:29:14.168Z,4.30
2022-10-05T09:31:49.002Z,4.00
2022-10-05T09:34:31.024Z,4.28
2022-10-05T09:37:20.307Z,3.83
2022-10-05T09:40:18.252Z,4.05
2022-10-05T09:42:48.828Z,4.10
2022-10-05T09:48:18.095Z,3.47
2022-10-05T09:50:49.189Z,4.18
2022-10-05T09:53:40.505Z,3.40
2022-10-05T09:56:35.898Z,3.50
2022-10-05T09:59:38.749Z,3.72
2022-10-05T10:02:15.094Z,3.90
2022-10-05T10:05:01.818Z,3.63
2022-10-05T10:08:17.013Z,3.88
2022-10-05T10:11:04.325Z,3.70
2022-10-05T10:13:53.957Z,3.60
2022-10-05T10:16:37.869Z,3.85
2022-10-05T10:19:17.473Z,3.47
2022-10-05T10:22:06.491Z,3.57
2022-10-05T10:24:55.176Z,3.72
2022-10-05T10:27:30.342Z,3.60
2022-10-05T10:30:04.474Z,3.67
2022-10-05T10:32:43.654Z,3.58
2022-10-05T10:35:19.095Z,3.25
2022-10-05T10:38:06.251Z,2.97
2022-10-05T10:40:52.027Z,3.17
2022-10-05T10:43:34.161Z,3.10
2022-10-05T10:46:26.361Z,3.30
2022-10-05T10:49:09.489Z,4.05
2022-10-05T10:51:58.363Z,3.42
2022-10-05T10:54:45.907Z,3.22
2022-10-05T10:57:26.723Z,2.92
2022-10-05T11:00:15.616Z,3.42
2022-10-05T11:03:20.825Z,3.28
2022-10-05T11:06:07.961Z,2.80
2022-10-05T11:08:57.011Z,2.97
2022-10-05T11:11:39.109Z,3.40
2022-10-05T11:14:15.402Z,3.13
2022-10-05T11:17:05.972Z,2.88
2022-10-05T11:22:36.935Z,2.97
2022-10-05T11:25:10.579Z,3.00
2022-10-05T11:28:01.049Z,2.70
2022-10-05T11:30:31.257Z,3.15
2022-10-05T11:33:24.380Z,2.70
2022-10-05T11:36:27.479Z,2.55
2022-10-05T11:39:02.195Z,2.72
2022-10-05T11:41:42.257Z,2.97
2022-10-05T11:44:47.279Z,2.47
2022-10-05T11:47:32.173Z,2.92
2022-10-05T11:50:08.847Z,2.83
2022-10-05T11:52:45.540Z,2.20
2022-10-05T11:55:25.197Z,3.22
2022-10-05T11:58:31.039Z,2.80
2022-10-05T12:01:06.294Z,2.20
2022-10-05T12:04:06.293Z,2.50
2022-10-05T12:07:13.011Z,2.70
2022-10-05T12:10:23.141Z,2.13
2022-10-05T12:13:15.846Z,2.67
2022-10-05T12:15:55.374Z,2.13
2022-10-05T12:18:32.694Z,2.60
2022-10-05T12:21:12.067Z,2.10
2022-10-05T12:24:09.036Z,2.13
2022-10-05T12:26:53.570Z,2.05
2022-10-05T12:29:32.299Z,2.40
2022-10-05T12:32:08.252Z,2.13
2022-10-05T12:34:50.623Z,2.22
2022-10-05T12:37:26.813Z,1.88
2022-10-05T12:40:06.524Z,2.03
2022-10-05T12:42:43.926Z,2.13
2022-10-05T12:45:29.529Z,1.90
2022-10-05T12:48:15.462Z,2.75
2022-10-05T12:50:52.120Z,2.40
2022-10-05T12:53:49.222Z,1.90
2022-10-05T12:56:31.866Z,2.25
2022-10-05T12:59:14.738Z,2.45
2022-10-05T13:01:55.063Z,2.50
2022-10-05T13:04:32.697Z,1.98
2022-10-05T13:07:40.693Z,1.98
2022-10-05T13:10:35.345Z,1.65
2022-10-05T13:13:17.705Z,1.50
2022-10-05T13:16:15.905Z,1.60
2022-10-05T13:18:44.356Z,1.38
2022-10-05T13:21:17.502Z,1.77
2022-10-05T13:23:57.392Z,1.90
2022-10-05T13:26:35.094Z,1.60
2022-10-05T13:29:51.018Z,1.60
2022-10-05T13:32:26.136Z,1.23
2022-10-05T13:35:16.150Z,1.67
2022-10-05T13:38:18.476Z,1.63
2022-10-05T13:41:01.545Z,1.70
2022-10-05T13:43:49.221Z,2.00
2022-10-05T13:46:40.411Z,1.30
2022-10-05T13:49:19.901Z,1.15
2022-10-05T13:52:10.667Z,1.30
2022-10-05T13:55:15.023Z,1.40
2022-10-05T13:58:12.508Z,1.20
2022-10-05T14:01:04.668Z,1.60
2022-10-05T14:03:37.456Z,1.40
2022-10-05T14:06:30.835Z,1.38
2022-10-05T14:09:00.517Z,1.80
2022-10-05T14:11:31.948Z,1.30
2022-10-05T14:14:18.034Z,1.65
2022-10-05T14:17:06.031Z,1.27
2022-10-05T14:19:53.431Z,2.15
2022-10-05T14:22:26.696Z,1.50
2022-10-05T14:25:19.545Z,1.70
2022-10-05T14:27:57.399Z,1.50
2022-10-05T14:30:27.370Z,1.60
2022-10-05T14:33:05.689Z,1.70
2022-10-05T14:35:57.596Z,2.17
2022-10-05T14:38:37.234Z,1.70
2022-10-05T14:41:16.126Z,1.35
2022-10-05T14:43:56.553Z,1.38
2022-10-05T14:46:35.622Z,1.30
2022-10-05T14:49:29.351Z,1.60
2022-10-05T14:51:57.092Z,1.83
2022-10-05T14:54:35.992Z,1.85
2022-10-05T14:57:06.705Z,1.83
2022-10-05T15:00:04.261Z,2.20
2022-10-05T15:03:10.061Z,2.10
2022-10-05T15:06:01.837Z,2.17
2022-10-05T15:08:48.347Z,1.92
2022-10-05T15:11:49.536Z,2.03
2022-10-05T15:14:33.401Z,1.95
2022-10-05T15:17:15.033Z,1.65
2022-10-05T15:20:16.169Z,2.00
2022-10-05T15:23:17.019Z,1.90
2022-10-05T15:26:08.349Z,1.98
2022-10-05T15:28:48.636Z,1.92
2022-10-05T15:31:31.274Z,1.98
2022-10-05T15:34:13.055Z,2.50
2022-10-05T15:36:48.061Z,1.70
2022-10-05T15:39:35.323Z,1.70
2022-10-05T15:42:10.102Z,1.50
2022-10-05T15:44:56.975Z,2.05
2022-10-05T15:47:49.518Z,1.77
2022-10-05T15:50:33.072Z,1.48
2022-10-05T15:53:25.729Z,1.48
2022-10-05T15:55:59.938Z,1.30
2022-10-05T15:58:58.501Z,1.30
2022-10-05T16:01:31.764Z,1.50
2022-10-05T16:04:36.122Z,1.33
2022-10-05T16:07:29.231Z,1.40
2022-10-05T16:10:13.601Z,1.27
2022-10-05T16:12:58.895Z,1.77
2022-10-05T16:15:37.491Z,1.50
2022-10-05T16:18:24.163Z,1.75
2022-10-05T16:21:21.025Z,1.48
2022-10-05T16:24:16.013Z,1.45
2022-10-05T16:26:48.851Z,1.60
2022-10-05T16:29:34.856Z,1.80
2022-10-05T16:32:24.420Z,1.33
2022-10-05T16:35:17.003Z,1.50
2022-10-05T16:38:09.925Z,1.40
2022-10-05T16:41:01.910Z,1.58
2022-10-05T16:43:30.413Z,2.25
2022-10-05T16:46:12.540Z,1.63
2022-10-05T16:48:49.815Z,2.22
2022-10-05T16:51:28.895Z,1.95
2022-10-05T16:54:14.663Z,2.10
2022-10-05T16:56:48.329Z,1.80
2022-10-05T16:59:42.805Z,1.50
2022-10-05T17:02:16.319Z,1.55
2022-10-05T17:05:24.053Z,1.80
2022-10-05T17:08:10.664Z,1.70
2022-10-05T17:11:17.179Z,1.75
2022-10-05T17:14:07.608Z,1.45
2022-10-05T17:16:59.730Z,1.63
2022-10-05T17:20:09.619Z,1.70
2022-10-05T17:22:47.730Z,1.85
2022-10-05T17:25:34.152Z,1.85
2022-10-05T17:28:35.383Z,1.67
2022-10-05T17:31:18.817Z,1.75
2022-10-05T17:34:00.832Z,1.50
2022-10-05T17:36:58.404Z,2.50
2022-10-05T17:40:23.069Z,1.80
2022-10-05T17:43:01.579Z,1.90
2022-10-05T17:45:34.729Z,2.00
2022-10-05T17:48:06.369Z,1.63
2022-10-05T17:51:02.730Z,1.70
2022-10-05T17:54:01.686Z,2.03
2022-10-05T17:56:50.648Z,2.10
2022-10-05T17:59:36.442Z,2.35
2022-10-05T18:02:36.720Z,1.98
2022-10-05T18:05:04.697Z,1.73
2022-10-05T18:07:36.524Z,1.90
2022-10-05T18:10:10.059Z,1.80
2022-10-05T18:12:38.813Z,1.90
2022-10-05T18:15:05.851Z,2.22
2022-10-05T18:17:56.295Z,1.80
2022-10-05T18:20:27.073Z,2.15
2022-10-05T18:23:07.501Z,1.83
2022-10-05T18:25:52.217Z,1.40
2022-10-05T18:28:39.503Z,1.95
2022-10-05T18:31:26.508Z,1.70
2022-10-05T18:34:22.853Z,2.40
2022-10-05T18:37:05.496Z,1.63
2022-10-05T18:39:47.839Z,2.00
2022-10-05T18:42:35.632Z,2.08
2022-10-05T18:45:28.645Z,2.20
2022-10-05T18:48:35.586Z,1.80
2022-10-05T18:51:28.513Z,2.10
2022-10-05T18:54:17.688Z,1.95
2022-10-05T18:56:51.015Z,2.45
2022-10-05T18:59:24.163Z,1.98
2022-10-05T19:02:04.398Z,2.13
2022-10-05T19:05:23.591Z,1.83
2022-10-05T19:08:05.181Z,2.17
2022-10-05T19:10:44.674Z,2.13
2022-10-05T19:13:39.917Z,2.08
2022-10-05T19:16:46.687Z,1.77
2022-10-05T19:19:32.466Z,2.35
2022-10-05T19:22:20.094Z,2.10
2022-10-05T19:25:23.591Z,1.95
2022-10-05T19:28:09.824Z,2.15
2022-10-05T19:30:56.429Z,2.03
2022-10-05T19:33:59.534Z,2.15
2022-10-05T19:36:59.483Z,2.00
2022-10-05T19:39:36.167Z,2.17
2022-10-05T19:42:26.684Z,2.25
2022-10-05T19:45:26.900Z,2.30
2022-10-05T19:48:03.925Z,2.13
2022-10-05T19:50:33.837Z,2.17
2022-10-05T19:53:15.228Z,2.60
2022-10-05T19:55:45.769Z,2.42
2022-10-05T20:00:58.227Z,2.47
2022-10-05T20:03:31.610Z,2.13
2022-10-05T20:06:01.179Z,2.63
2022-10-05T20:08:49.966Z,2.40
2022-10-05T20:11:29.313Z,3.10
2022-10-05T20:14:01.234Z,2.97
2022-10-05T20:16:48.376Z,3.10
2022-10-05T20:19:50.923Z,3.45
2022-10-05T20:22:34.873Z,3.05
2022-10-05T20:25:06.587Z,3.13
2022-10-05T20:27:48.610Z,2.90
2022-10-05T20:30:18.584Z,2.70
2022-10-05T20:32:58.518Z,3.03
2022-10-05T20:35:30.786Z,2.90
2022-10-05T20:38:00.403Z,2.75
2022-10-05T20:40:29.581Z,3.13
2022-10-05T20:42:59.759Z,3.17
2022-10-05T20:45:27.703Z,3.03
2022-10-05T20:48:05.140Z,2.80
2022-10-05T20:50:33.183Z,2.60
2022-10-05T20:53:00.259Z,3.20
2022-10-05T20:55:31.347Z,2.80
2022-10-05T20:57:59.082Z,2.70
2022-10-05T21:00:47.114Z,2.80
2022-10-05T21:03:16.273Z,3.00
2022-10-05T21:05:46.465Z,2.35
2022-10-05T21:08:14.126Z,2.75
2022-10-05T21:10:41.175Z,2.78
2022-10-05T21:13:09.197Z,3.78
2022-10-05T21:15:36.713Z,0.60
2022-10-05T21:18:04.438Z,0.80
2022-10-05T21:20:31.591Z,1.00
2022-10-05T21:23:03.092Z,0.90
2022-10-05T21:25:30.214Z,1.23
2022-10-05T21:27:58.623Z,0.60
2022-10-05T21:30:26.011Z,0.40
2022-10-05T21:35:26.967Z,0.85
2022-10-05T21:37:54.861Z,0.77
2022-10-05T21:40:24.606Z,0.68
2022-10-05T21:42:52.243Z,0.80
2022-10-05T21:45:19.285Z,1.15
2022-10-05T21:47:46.683Z,0.90
2022-10-05T21:50:14.398Z,0.70
2022-10-05T21:52:42.063Z,1.63
2022-10-05T21:55:10.659Z,1.10
2022-10-05T21:57:38.886Z,0.70
2022-10-05T22:00:08.463Z,0.98
2022-10-05T22:02:35.656Z,0.93
2022-10-05T22:05:03.057Z,1.05
2022-10-05T22:07:30.326Z,1.27
2022-10-05T22:09:59.626Z,1.02
2022-10-05T22:12:27.113Z,1.20
2022-10-05T22:14:54.573Z,0.95
2022-10-05T22:17:31.754Z,1.00
2022-10-05T22:20:00.406Z,1.20
2022-10-05T22:22:29.788Z,1.30
2022-10-05T22:24:57.825Z,1.52
2022-10-05T22:27:28.002Z,1.20
2022-10-05T22:32:24.968Z,1.67
2022-10-05T22:34:53.416Z,2.15
2022-10-05T22:37:20.830Z,1.40
2022-10-05T22:39:50.999Z,1.70
2022-10-05T22:42:24.219Z,1.58
2022-10-05T22:44:52.288Z,1.50
2022-10-05T22:47:19.301Z,2.10
2022-10-05T22:49:46.356Z,1.30
2022-10-05T22:52:13.954Z,1.30
2022-10-05T22:54:44.670Z,2.33
2022-10-05T22:57:12.749Z,1.70
2022-10-05T22:59:40.160Z,1.67
2022-10-05T23:02:07.479Z,1.60
2022-10-05T23:04:37.371Z,1.60
2022-10-05T23:07:06.710Z,1.67
2022-10-05T23:09:33.875Z,2.08
2022-10-05T23:12:01.676Z,1.60
2022-10-05T23:14:31.355Z,1.90
2022-10-05T23:16:58.398Z,2.57
2022-10-05T23:19:25.826Z,1.73
2022-10-05T23:21:54.695Z,2.25
2022-10-05T23:24:22.888Z,1.92
2022-10-05T23:26:50.953Z,1.58
2022-10-05T23:29:19.339Z,1.95
2022-10-05T23:31:46.540Z,2.00
2022-10-05T23:34:13.698Z,2.00
2022-10-05T23:36:40.781Z,1.83
2022-10-05T23:39:07.880Z,1.60
2022-10-05T23:41:34.950Z,2.30
2022-10-05T23:44:02.440Z,1.70
2022-10-05T23:46:32.086Z,2.58
2022-10-05T23:48:59.150Z,1.70
2022-10-05T23:51:26.558Z,1.58
2022-10-05T23:53:54.869Z,1.48
2022-10-05T23:56:22.322Z,1.55
2022-10-05T23:58:49.342Z,1.35
